DLH611 EDDF-EHAM
Flight info
| Callsign | DLH611 |
|---|---|
| Flight time | N/A |
| Altitude | 24000 |
| Route | MARUN6E/07C MARUN Y152 ARPEG Z850 ABILU DCT NORKU |
| Aircraft | A320/M-SDE3FGHIRWY/LB1 |
Departure
| Time | N/A |
|---|---|
| Airport | Frankfurt Main Airport (EDDF) |
Arrival
| Time | 2026-04-28 20:28 |
|---|---|
| Airport | Amsterdam Airport Schiphol (EHAM) |
| Time | Latitude | Longitude | Altitude | Speed | Heading |
|---|---|---|---|---|---|
| 2026-04-28 19:41 | 50.90818 | 8.53973 | 15250 ft | 346 kts | 300° |
| 2026-04-28 19:41 | 50.92155 | 8.50155 | 15391 ft | 356 kts | 301° |
| 2026-04-28 19:41 | 50.93214 | 8.47128 | 15497 ft | 362 kts | 301° |
| 2026-04-28 19:41 | 50.94530 | 8.43702 | 15621 ft | 369 kts | 306° |
| 2026-04-28 19:42 | 50.96120 | 8.40374 | 15866 ft | 385 kts | 311° |
| 2026-04-28 19:42 | 50.97880 | 8.37120 | 16409 ft | 390 kts | 313° |
| 2026-04-28 19:42 | 50.99614 | 8.34075 | 17015 ft | 394 kts | 315° |
| 2026-04-28 19:42 | 51.00942 | 8.32083 | 17450 ft | 395 kts | 321° |
| 2026-04-28 19:43 | 51.03938 | 8.28716 | 18316 ft | 397 kts | 330° |
| 2026-04-28 19:43 | 51.06339 | 8.26580 | 18886 ft | 400 kts | 332° |
| 2026-04-28 19:43 | 51.08843 | 8.24329 | 19456 ft | 403 kts | 331° |
| 2026-04-28 19:43 | 51.11253 | 8.22146 | 19991 ft | 406 kts | 331° |
| 2026-04-28 19:44 | 51.13751 | 8.19888 | 20544 ft | 409 kts | 331° |
| 2026-04-28 19:44 | 51.16202 | 8.17685 | 21067 ft | 412 kts | 331° |
| 2026-04-28 19:44 | 51.18742 | 8.15414 | 21590 ft | 415 kts | 331° |
| 2026-04-28 19:44 | 51.21263 | 8.13164 | 22092 ft | 418 kts | 331° |
| 2026-04-28 19:45 | 51.23815 | 8.10883 | 22577 ft | 421 kts | 331° |
| 2026-04-28 19:45 | 51.26380 | 8.08585 | 23058 ft | 424 kts | 331° |
| 2026-04-28 19:45 | 51.28959 | 8.06273 | 23535 ft | 427 kts | 331° |
| 2026-04-28 19:45 | 51.31562 | 8.03940 | 23976 ft | 429 kts | 331° |
| 2026-04-28 19:46 | 51.34172 | 8.01598 | 24210 ft | 431 kts | 331° |
| 2026-04-28 19:46 | 51.36767 | 7.99259 | 24252 ft | 431 kts | 331° |
| 2026-04-28 19:46 | 51.39387 | 7.96891 | 24259 ft | 430 kts | 331° |
| 2026-04-28 19:46 | 51.41892 | 7.94388 | 24255 ft | 431 kts | 325° |
| 2026-04-28 19:47 | 51.44337 | 7.91483 | 24258 ft | 431 kts | 324° |
| 2026-04-28 19:47 | 51.46748 | 7.88612 | 24254 ft | 431 kts | 324° |
| 2026-04-28 19:47 | 51.49152 | 7.85745 | 24254 ft | 431 kts | 324° |
| 2026-04-28 19:47 | 51.51561 | 7.82867 | 24251 ft | 431 kts | 324° |
| 2026-04-28 19:48 | 51.53966 | 7.79994 | 24250 ft | 431 kts | 324° |
| 2026-04-28 19:48 | 51.56377 | 7.77113 | 24249 ft | 431 kts | 324° |
| 2026-04-28 19:48 | 51.58785 | 7.74232 | 24249 ft | 431 kts | 324° |
| 2026-04-28 19:48 | 51.61194 | 7.71342 | 24249 ft | 431 kts | 324° |
| 2026-04-28 19:49 | 51.63592 | 7.68461 | 24249 ft | 431 kts | 324° |
| 2026-04-28 19:49 | 51.65997 | 7.65568 | 24252 ft | 431 kts | 324° |
| 2026-04-28 19:49 | 51.68434 | 7.62633 | 24257 ft | 431 kts | 324° |
| 2026-04-28 19:49 | 51.70833 | 7.59738 | 24260 ft | 432 kts | 324° |
| 2026-04-28 19:50 | 51.75615 | 7.53961 | 24268 ft | 432 kts | 324° |
| 2026-04-28 19:50 | 51.78141 | 7.50905 | 24276 ft | 432 kts | 324° |
| 2026-04-28 19:50 | 51.80446 | 7.48118 | 24282 ft | 432 kts | 324° |
| 2026-04-28 19:51 | 51.82861 | 7.45194 | 24285 ft | 432 kts | 324° |
| 2026-04-28 19:51 | 51.85348 | 7.42173 | 24298 ft | 432 kts | 324° |
| 2026-04-28 19:51 | 51.87697 | 7.39309 | 24293 ft | 432 kts | 324° |
| 2026-04-28 19:51 | 51.90087 | 7.36355 | 24295 ft | 433 kts | 322° |
| 2026-04-28 19:52 | 51.92149 | 7.32791 | 24296 ft | 436 kts | 306° |
| 2026-04-28 19:52 | 51.93707 | 7.28573 | 24294 ft | 438 kts | 301° |
| 2026-04-28 19:52 | 51.95204 | 7.24284 | 24289 ft | 438 kts | 301° |
| 2026-04-28 19:52 | 51.96694 | 7.19957 | 24285 ft | 439 kts | 301° |
| 2026-04-28 19:53 | 51.98178 | 7.15630 | 24282 ft | 439 kts | 301° |
| 2026-04-28 19:53 | 51.99163 | 7.12759 | 24281 ft | 439 kts | 301° |
| 2026-04-28 19:53 | 52.00689 | 7.08305 | 24284 ft | 440 kts | 301° |
| 2026-04-28 19:53 | 52.02673 | 7.02505 | 24279 ft | 440 kts | 301° |
| 2026-04-28 19:54 | 52.03662 | 6.99613 | 24277 ft | 440 kts | 301° |
| 2026-04-28 19:54 | 52.05168 | 6.95206 | 24276 ft | 441 kts | 301° |
| 2026-04-28 19:54 | 52.06652 | 6.90859 | 24277 ft | 441 kts | 301° |
| 2026-04-28 19:54 | 52.08122 | 6.86548 | 24076 ft | 437 kts | 301° |
| 2026-04-28 19:55 | 52.09569 | 6.82293 | 23689 ft | 419 kts | 301° |
| 2026-04-28 19:55 | 52.10954 | 6.78200 | 22961 ft | 403 kts | 301° |
| 2026-04-28 19:55 | 52.12275 | 6.74297 | 22291 ft | 392 kts | 301° |
| 2026-04-28 19:55 | 52.13601 | 6.70376 | 21255 ft | 386 kts | 301° |
| 2026-04-28 19:56 | 52.14879 | 6.66591 | 20269 ft | 380 kts | 301° |
| 2026-04-28 19:56 | 52.16141 | 6.62845 | 19328 ft | 375 kts | 301° |
| 2026-04-28 19:56 | 52.17369 | 6.59192 | 18424 ft | 370 kts | 301° |
| 2026-04-28 19:56 | 52.18579 | 6.55592 | 17750 ft | 357 kts | 301° |
| 2026-04-28 19:57 | 52.19762 | 6.52078 | 16873 ft | 351 kts | 301° |
| 2026-04-28 19:57 | 52.20932 | 6.48607 | 15989 ft | 348 kts | 301° |
| 2026-04-28 19:57 | 52.22092 | 6.45157 | 15125 ft | 345 kts | 301° |
| 2026-04-28 19:57 | 52.23251 | 6.41701 | 14286 ft | 342 kts | 301° |
| 2026-04-28 19:58 | 52.24372 | 6.38360 | 13412 ft | 339 kts | 301° |
| 2026-04-28 19:58 | 52.25497 | 6.34995 | 12531 ft | 336 kts | 301° |
| 2026-04-28 19:58 | 52.26607 | 6.31664 | 11675 ft | 332 kts | 300° |
| 2026-04-28 19:58 | 52.27687 | 6.28411 | 11336 ft | 314 kts | 301° |
| 2026-04-28 19:59 | 52.28696 | 6.25359 | 10962 ft | 300 kts | 301° |
| 2026-04-28 19:59 | 52.29681 | 6.22385 | 10376 ft | 295 kts | 301° |
| 2026-04-28 19:59 | 52.30651 | 6.19457 | 9716 ft | 293 kts | 301° |
| 2026-04-28 19:59 | 52.31618 | 6.16540 | 9022 ft | 290 kts | 301° |
| 2026-04-28 20:00 | 52.32575 | 6.13653 | 8360 ft | 287 kts | 301° |
| 2026-04-28 20:00 | 52.33525 | 6.10786 | 7684 ft | 285 kts | 301° |
| 2026-04-28 20:00 | 52.34459 | 6.07958 | 7353 ft | 284 kts | 301° |
| 2026-04-28 20:00 | 52.35402 | 6.05098 | 7257 ft | 285 kts | 301° |
| 2026-04-28 20:01 | 52.36346 | 6.02234 | 7285 ft | 286 kts | 301° |
| 2026-04-28 20:01 | 52.37286 | 5.99376 | 7294 ft | 286 kts | 300° |
| 2026-04-28 20:01 | 52.38226 | 5.96510 | 7294 ft | 286 kts | 301° |
| 2026-04-28 20:01 | 52.39165 | 5.93641 | 7292 ft | 286 kts | 300° |
| 2026-04-28 20:02 | 52.40104 | 5.90770 | 7294 ft | 286 kts | 300° |
| 2026-04-28 20:02 | 52.41043 | 5.87898 | 7298 ft | 286 kts | 300° |
| 2026-04-28 20:02 | 52.41983 | 5.85034 | 7300 ft | 286 kts | 301° |
| 2026-04-28 20:02 | 52.42923 | 5.82161 | 7295 ft | 286 kts | 300° |
| 2026-04-28 20:03 | 52.43861 | 5.79285 | 7296 ft | 286 kts | 300° |
| 2026-04-28 20:03 | 52.44798 | 5.76407 | 7300 ft | 286 kts | 300° |
| 2026-04-28 20:03 | 52.45734 | 5.73528 | 7299 ft | 286 kts | 300° |
| 2026-04-28 20:03 | 52.46671 | 5.70643 | 7301 ft | 287 kts | 301° |
| 2026-04-28 20:04 | 52.47608 | 5.67759 | 7301 ft | 287 kts | 300° |
| 2026-04-28 20:04 | 52.48549 | 5.64868 | 7302 ft | 287 kts | 300° |
| 2026-04-28 20:04 | 52.49476 | 5.61975 | 7297 ft | 287 kts | 297° |
| 2026-04-28 20:04 | 52.50042 | 5.58815 | 7298 ft | 291 kts | 278° |
| 2026-04-28 20:05 | 52.50018 | 5.55506 | 7298 ft | 292 kts | 261° |
| 2026-04-28 20:05 | 52.49404 | 5.52325 | 7300 ft | 293 kts | 243° |
| 2026-04-28 20:05 | 52.48375 | 5.49450 | 7303 ft | 293 kts | 238° |
| 2026-04-28 20:05 | 52.47327 | 5.46621 | 7251 ft | 294 kts | 238° |
| 2026-04-28 20:06 | 52.46253 | 5.43709 | 7114 ft | 293 kts | 238° |
| 2026-04-28 20:06 | 52.45221 | 5.40904 | 7006 ft | 292 kts | 238° |
| 2026-04-28 20:06 | 52.44176 | 5.38068 | 6754 ft | 289 kts | 238° |
| 2026-04-28 20:06 | 52.43133 | 5.35234 | 6317 ft | 288 kts | 238° |
| 2026-04-28 20:07 | 52.42039 | 5.32539 | 6055 ft | 279 kts | 233° |
| 2026-04-28 20:07 | 52.41288 | 5.30819 | 5982 ft | 270 kts | 233° |
| 2026-04-28 20:07 | 52.39878 | 5.27604 | 5769 ft | 256 kts | 233° |
| 2026-04-28 20:07 | 52.38848 | 5.25253 | 5480 ft | 252 kts | 233° |
| 2026-04-28 20:08 | 52.37835 | 5.22924 | 5303 ft | 251 kts | 233° |
| 2026-04-28 20:08 | 52.36827 | 5.20592 | 5296 ft | 251 kts | 233° |
| 2026-04-28 20:08 | 52.35814 | 5.18252 | 5293 ft | 251 kts | 233° |
| 2026-04-28 20:08 | 52.34817 | 5.15937 | 5289 ft | 251 kts | 233° |
| 2026-04-28 20:09 | 52.33808 | 5.13597 | 5297 ft | 252 kts | 233° |
| 2026-04-28 20:09 | 52.32801 | 5.11261 | 5293 ft | 251 kts | 233° |
| 2026-04-28 20:09 | 52.31736 | 5.08793 | 5301 ft | 251 kts | 233° |
| 2026-04-28 20:09 | 52.30783 | 5.06586 | 5296 ft | 252 kts | 233° |
| 2026-04-28 20:10 | 52.29675 | 5.04398 | 5224 ft | 248 kts | 219° |
| 2026-04-28 20:10 | 52.28339 | 5.02650 | 4868 ft | 246 kts | 213° |
| 2026-04-28 20:10 | 52.26963 | 5.00979 | 4510 ft | 245 kts | 212° |
| 2026-04-28 20:10 | 52.25601 | 4.99310 | 4300 ft | 244 kts | 213° |
| 2026-04-28 20:11 | 52.24243 | 4.97633 | 4294 ft | 246 kts | 213° |
| 2026-04-28 20:11 | 52.22883 | 4.95959 | 4298 ft | 246 kts | 213° |
| 2026-04-28 20:11 | 52.21508 | 4.94267 | 4298 ft | 247 kts | 213° |
| 2026-04-28 20:11 | 52.20133 | 4.92569 | 4299 ft | 247 kts | 213° |
| 2026-04-28 20:12 | 52.18762 | 4.90883 | 4298 ft | 247 kts | 213° |
| 2026-04-28 20:12 | 52.17429 | 4.89108 | 4289 ft | 241 kts | 226° |
| 2026-04-28 20:12 | 52.16572 | 4.86861 | 4295 ft | 228 kts | 240° |
| 2026-04-28 20:12 | 52.16126 | 4.85360 | 4320 ft | 217 kts | 242° |
| 2026-04-28 20:13 | 52.15289 | 4.82420 | 4295 ft | 212 kts | 243° |
| 2026-04-28 20:13 | 52.14677 | 4.80270 | 4290 ft | 212 kts | 243° |
| 2026-04-28 20:13 | 52.14053 | 4.78067 | 4293 ft | 212 kts | 243° |
| 2026-04-28 20:13 | 52.13440 | 4.75887 | 4294 ft | 212 kts | 243° |
| 2026-04-28 20:14 | 52.12827 | 4.73716 | 4166 ft | 209 kts | 242° |
| 2026-04-28 20:14 | 52.12221 | 4.71546 | 3829 ft | 211 kts | 243° |
| 2026-04-28 20:14 | 52.11630 | 4.69393 | 3482 ft | 213 kts | 242° |
| 2026-04-28 20:14 | 52.11031 | 4.67183 | 3123 ft | 214 kts | 243° |
| 2026-04-28 20:15 | 52.10375 | 4.65002 | 2978 ft | 211 kts | 230° |
| 2026-04-28 20:15 | 52.09275 | 4.63601 | 2986 ft | 195 kts | 189° |
| 2026-04-28 20:15 | 52.08024 | 4.63612 | 2976 ft | 172 kts | 148° |
| 2026-04-28 20:15 | 52.07234 | 4.64831 | 2986 ft | 156 kts | 108° |
| 2026-04-28 20:16 | 52.07262 | 4.66533 | 2985 ft | 157 kts | 67° |
| 2026-04-28 20:16 | 52.08122 | 4.67711 | 2984 ft | 173 kts | 25° |
| 2026-04-28 20:16 | 52.09374 | 4.67587 | 2984 ft | 195 kts | 345° |
| 2026-04-28 20:16 | 52.10401 | 4.66095 | 2982 ft | 212 kts | 304° |
| 2026-04-28 20:17 | 52.10798 | 4.63729 | 2989 ft | 218 kts | 277° |
| 2026-04-28 20:17 | 52.10899 | 4.61280 | 2990 ft | 218 kts | 273° |
| 2026-04-28 20:17 | 52.10968 | 4.58815 | 2985 ft | 218 kts | 272° |
| 2026-04-28 20:17 | 52.11039 | 4.56340 | 2988 ft | 218 kts | 272° |
| 2026-04-28 20:18 | 52.11108 | 4.53877 | 2988 ft | 218 kts | 272° |
| 2026-04-28 20:18 | 52.11152 | 4.52238 | 2988 ft | 218 kts | 273° |
| 2026-04-28 20:18 | 52.11232 | 4.48953 | 2976 ft | 212 kts | 272° |
| 2026-04-28 20:18 | 52.11289 | 4.46626 | 2994 ft | 203 kts | 272° |
| 2026-04-28 20:19 | 52.11351 | 4.44354 | 2986 ft | 199 kts | 272° |
| 2026-04-28 20:19 | 52.11412 | 4.42105 | 2980 ft | 198 kts | 272° |
| 2026-04-28 20:19 | 52.11544 | 4.39886 | 2965 ft | 196 kts | 289° |
| 2026-04-28 20:19 | 52.12268 | 4.38149 | 2716 ft | 180 kts | 331° |
| 2026-04-28 20:20 | 52.13344 | 4.37395 | 2294 ft | 162 kts | 5° |
| 2026-04-28 20:20 | 52.14385 | 4.37590 | 2007 ft | 142 kts | 32° |
| 2026-04-28 20:20 | 52.15184 | 4.38447 | 1995 ft | 134 kts | 53° |
| 2026-04-28 20:20 | 52.15710 | 4.39655 | 1989 ft | 131 kts | 63° |
| 2026-04-28 20:21 | 52.16209 | 4.40936 | 1999 ft | 141 kts | 63° |
| 2026-04-28 20:21 | 52.16762 | 4.42354 | 1979 ft | 152 kts | 63° |
| 2026-04-28 20:21 | 52.17332 | 4.43814 | 1983 ft | 153 kts | 62° |
| 2026-04-28 20:21 | 52.17905 | 4.45285 | 1987 ft | 154 kts | 62° |
| 2026-04-28 20:22 | 52.18480 | 4.46761 | 2007 ft | 154 kts | 62° |
| 2026-04-28 20:22 | 52.19048 | 4.48220 | 2003 ft | 152 kts | 63° |
| 2026-04-28 20:22 | 52.19614 | 4.49679 | 2007 ft | 152 kts | 63° |
| 2026-04-28 20:22 | 52.20182 | 4.51140 | 2006 ft | 152 kts | 63° |
| 2026-04-28 20:23 | 52.20748 | 4.52598 | 2007 ft | 152 kts | 62° |
| 2026-04-28 20:23 | 52.21316 | 4.54063 | 2005 ft | 151 kts | 62° |
| 2026-04-28 20:23 | 52.21835 | 4.55395 | 2017 ft | 131 kts | 63° |
| 2026-04-28 20:23 | 52.22303 | 4.56603 | 2005 ft | 120 kts | 63° |
| 2026-04-28 20:24 | 52.22741 | 4.57734 | 2003 ft | 118 kts | 64° |
| 2026-04-28 20:24 | 52.23176 | 4.58861 | 1993 ft | 118 kts | 64° |
| 2026-04-28 20:24 | 52.23640 | 4.60067 | 1908 ft | 131 kts | 63° |
| 2026-04-28 20:24 | 52.24132 | 4.61338 | 1761 ft | 133 kts | 62° |
| 2026-04-28 20:25 | 52.24628 | 4.62618 | 1592 ft | 133 kts | 62° |
| 2026-04-28 20:25 | 52.25123 | 4.63899 | 1421 ft | 133 kts | 62° |
| 2026-04-28 20:25 | 52.25598 | 4.65126 | 1238 ft | 120 kts | 61° |
| 2026-04-28 20:25 | 52.26029 | 4.66249 | 1068 ft | 112 kts | 59° |
| 2026-04-28 20:26 | 52.26452 | 4.67315 | 899 ft | 112 kts | 60° |
| 2026-04-28 20:26 | 52.26866 | 4.68392 | 739 ft | 113 kts | 59° |
| 2026-04-28 20:26 | 52.27289 | 4.69492 | 596 ft | 116 kts | 57° |
| 2026-04-28 20:26 | 52.27714 | 4.70614 | 487 ft | 117 kts | 58° |
| 2026-04-28 20:27 | 52.28148 | 4.71733 | 339 ft | 116 kts | 57° |
| 2026-04-28 20:27 | 52.28574 | 4.72845 | 164 ft | 117 kts | 57° |
| 2026-04-28 20:27 | 52.29004 | 4.73972 | 19 ft | 116 kts | 57° |
| 2026-04-28 20:27 | 52.29394 | 4.74977 | -2 ft | 81 kts | 58° |
| 2026-04-28 20:28 | 52.29583 | 4.75465 | -3 ft | 31 kts | 58° |
| 2026-04-28 20:28 | 52.29660 | 4.75656 | -2 ft | 20 kts | 55° |
| 2026-04-28 20:28 | 52.29771 | 4.75793 | -3 ft | 20 kts | 24° |
| 2026-04-28 20:28 | 52.29851 | 4.75859 | -4 ft | 15 kts | 27° |
| 2026-04-28 20:29 | 52.29933 | 4.75930 | -5 ft | 7 kts | 28° |
| 2026-04-28 20:29 | 52.29940 | 4.75935 | -5 ft | 3 kts | 25° |
| 2026-04-28 20:29 | 52.29970 | 4.75955 | -4 ft | 6 kts | 24° |
| 2026-04-28 20:29 | 52.30007 | 4.76024 | -3 ft | 11 kts | 56° |
| 2026-04-28 20:30 | 52.30060 | 4.76156 | -5 ft | 16 kts | 57° |
| 2026-04-28 20:30 | 52.30125 | 4.76324 | -2 ft | 19 kts | 59° |
| 2026-04-28 20:30 | 52.30199 | 4.76521 | -3 ft | 21 kts | 58° |
| 2026-04-28 20:30 | 52.30274 | 4.76706 | -4 ft | 17 kts | 45° |
| 2026-04-28 20:31 | 52.30347 | 4.76660 | -3 ft | 10 kts | 287° |
| 2026-04-28 20:31 | 52.30331 | 4.76580 | -2 ft | 8 kts | 257° |
| 2026-04-28 20:31 | 52.30357 | 4.76534 | -1 ft | 6 kts | 320° |
| 2026-04-28 20:31 | 52.30393 | 4.76479 | -2 ft | 9 kts | 332° |
| 2026-04-28 20:32 | 52.30460 | 4.76408 | -2 ft | 12 kts | 329° |
| 2026-04-28 20:32 | 52.30511 | 4.76358 | -2 ft | 12 kts | 329° |
| 2026-04-28 20:32 | 52.30520 | 4.76280 | -3 ft | 8 kts | 236° |
| 2026-04-28 20:32 | 52.30510 | 4.76258 | -3 ft | 2 kts | 236° |
| 2026-04-28 20:33 | 52.30509 | 4.76256 | -3 ft | 0 kts | 237° |